Pagrindinis puslapis
METAR-TAF:

METAR-TAF

Oro uostai :

Helsinkis, Suomija

platuma: 60-19N, ilguma: 024-58E, Aukštis: 51 m

Dabartinis oras

Ataskaita buvo paskelbta 31 minutes, ne 07:50 UTC
Vėjas 8 kt iš Pietryčių
Temperatūra 2°C
Drėgmė 93%
Slėgis 995 hPa
Matomumas: 6000 m
Su prošvaistėmis ne aukštis 600 ft
lietus

METAR: EFHK 150750Z 13008KT 6000 -RA BKN006 02/01 Q0995 NOSIG

Laikas: 10:21 (08:21 UTC)

Prognozė

Ataskaita buvo paskelbta 2 valandos ir 55 minutes, ne 05:26 UTC
Prognozė galioja nuo 15 metu 06 UTC su 16 metu 06 UTC
Vėjas 10 kt iš Pietryčių
Matomumas: 5000 m
Su prošvaistėmis ne aukštis 600 ft
lietus, sniegas
Laikinai
nuo 15 metu 06 UTC su 15 metu 23 UTC
Matomumas: 4000 m
Su prošvaistėmis ne aukštis 400 ft
dulksna
Tikimybė 30% :
Laikinai
nuo 15 metu 23 UTC su 16 metu 04 UTC
Matomumas: 8000 m
Su prošvaistėmis ne aukštis 1000 ft
lietus

TAF: EFHK 150526Z 1506/1606 14010KT 5000 -RASN BKN006 TEMPO 1506/1523 4000 DZ BKN004 PROB30 TEMPO 1523/1604 8000 -RA BKN010

Orai ataskaitas ir orų prognozės (METAR, TAF).

turimą stotys yra geltonos ir raudonos taškus žemėlapyje.

Perkelti pele per norėdami pamatyti stoties vardą.

Tada spustelėkite, norėdami matyti oro stebėjimo ir prognozės.

Norėdami pakeisti žemėlapį: spustelėkite ant žalios mygtukų su juodo kryžiaus žemyn,; žalią mygtuką su brūkšneliu, jei norite nutolinti; arba žalių rodyklių gretimoms žemėlapius.


METAR-TAF: